Terminal Aerodrome Forecast
Issued by NWS

Home | Current Version | Previous Version | Text Only | Print | Product List | Glossary Off
Versions: 1 2 3 4 5 6 7 8 9 10 11 12 13 14 15 16 17

000
FTUS43 KIWX 231100
TAFSBN
TAF
KSBN 231131Z 2312/2412 23008KT P6SM OVC018
     FM231600 23012KT P6SM OVC025
     FM232200 22008KT P6SM BKN035=

USA.gov is the U.S. government's official web portal to all federal, state and local government web resources and services.